Time;durP1;ratioP1;P1;durP2;ratioP2;P2;SDS_P1;SDS_P2;PMS_P1;PMS_P2;Temp;Humidity;BMP_temperature;BMP_pressure;BME280_temperature;BME280_humidity;BME280_pressure;Samples;Min_cycle;Max_cycle;Signal;HPM_P1;HPM_P2
2023/11/10 00:04:12;;;;;;;6.03;1.87;;;;;7.40;99160.00;;;;10318774;28;20220;-73
2023/11/10 00:09:14;;;;;;;7.90;1.63;;;;;7.50;99155.00;;;;10319444;28;20357;-72
2023/11/10 00:14:18;;;;;;;4.83;1.50;;;;;7.50;99157.00;;;;10331233;28;20273;-78
2023/11/10 00:19:31;;;;;;;6.77;1.87;;;;;7.60;99146.00;;;;10318214;28;20274;-77
2023/11/10 00:24:33;;;;;;;4.47;1.40;;;;;7.60;99143.00;;;;10320941;28;20230;-77
2023/11/10 00:29:38;;;;;;;5.40;1.47;;;;;7.60;99150.00;;;;10315175;28;20275;-76
2023/11/10 00:34:40;;;;;;;3.23;1.10;;;;;7.60;99146.00;;;;10321993;28;20255;-77
2023/11/10 00:39:41;;;;;;;11.23;1.70;;;;;7.60;99140.00;;;;10306529;28;20244;-78
2023/11/10 00:44:42;;;;;;;5.13;1.40;;;;;7.50;99149.00;;;;10292527;28;20232;-77
2023/11/10 00:49:43;;;;;;;4.43;1.53;;;;;7.40;99147.00;;;;10322409;28;20243;-77
2023/11/10 00:54:46;;;;;;;6.87;1.60;;;;;7.30;99149.00;;;;10335666;28;20233;-76
2023/11/10 00:59:48;;;;;;;2.40;1.00;;;;;7.10;99147.00;;;;10319655;28;20231;-75
2023/11/10 01:04:49;;;;;;;4.00;1.20;;;;;7.00;99141.00;;;;10323254;28;20222;-75
2023/11/10 01:09:50;;;;;;;3.47;1.10;;;;;6.90;99126.00;;;;10336774;28;20219;-76
2023/11/10 01:14:51;;;;;;;5.83;1.57;;;;;6.90;99129.00;;;;10320879;28;20859;-75
2023/11/10 01:19:53;;;;;;;5.90;1.70;;;;;6.90;99130.00;;;;10314467;28;20311;-75
2023/11/10 01:24:54;;;;;;;4.87;1.37;;;;;6.80;99124.00;;;;10321905;28;20678;-72
2023/11/10 01:29:55;;;;;;;6.30;1.40;;;;;6.70;99117.00;;;;10330140;28;20314;-72
2023/11/10 01:34:56;;;;;;;7.60;1.27;;;;;6.70;99117.00;;;;10331313;28;20226;-72
2023/11/10 01:39:57;;;;;;;2.63;1.20;;;;;6.70;99107.00;;;;10322063;28;20310;-72
2023/11/10 01:44:58;;;;;;;3.60;1.60;;;;;6.70;99120.00;;;;10318716;28;20215;-71
2023/11/10 01:50:01;;;;;;;3.93;1.53;;;;;6.80;99115.00;;;;10321708;28;20282;-72
2023/11/10 01:55:06;;;;;;;3.57;1.27;;;;;6.90;99101.00;;;;10317240;28;20224;-72
2023/11/10 02:00:08;;;;;;;4.53;1.40;;;;;6.90;99112.00;;;;10320423;28;20227;-72
2023/11/10 02:05:11;;;;;;;3.20;1.50;;;;;6.90;99105.00;;;;10324579;28;20232;-72
2023/11/10 02:10:12;;;;;;;5.20;1.37;;;;;6.90;99096.00;;;;10319048;28;20251;-72
2023/11/10 02:15:14;;;;;;;6.30;1.57;;;;;6.90;99111.00;;;;10323809;28;20707;-72
2023/11/10 02:20:15;;;;;;;5.40;1.57;;;;;6.90;99117.00;;;;10323125;28;20231;-72
2023/11/10 02:25:20;;;;;;;3.43;1.10;;;;;6.90;99116.00;;;;10318099;28;20357;-72
2023/11/10 02:30:21;;;;;;;7.67;1.50;;;;;6.90;99101.00;;;;10317488;28;20212;-72
2023/11/10 02:35:22;;;;;;;4.33;1.13;;;;;6.80;99100.00;;;;10315279;28;20228;-70
2023/11/10 02:40:23;;;;;;;2.67;1.00;;;;;6.70;99106.00;;;;10329675;28;20261;-70
2023/11/10 02:45:24;;;;;;;4.33;1.20;;;;;6.70;99110.00;;;;10317056;28;20746;-70
2023/11/10 02:50:26;;;;;;;5.10;1.43;;;;;6.70;99111.00;;;;10321419;28;20274;-71
2023/11/10 02:55:27;;;;;;;4.43;1.70;;;;;6.80;99116.00;;;;10324245;28;20251;-70
2023/11/10 03:00:28;;;;;;;4.43;1.47;;;;;6.80;99115.00;;;;10315367;28;20709;-69
2023/11/10 03:05:30;;;;;;;4.53;1.90;;;;;6.80;99126.00;;;;10317894;28;20637;-70
2023/11/10 03:10:32;;;;;;;3.97;1.37;;;;;6.90;99113.00;;;;10309266;28;20220;-70
2023/11/10 03:15:34;;;;;;;8.50;1.63;;;;;6.80;99110.00;;;;10301915;28;20670;-69
2023/11/10 03:20:35;;;;;;;7.17;1.60;;;;;6.80;99114.00;;;;10341448;28;20236;-70
2023/11/10 03:25:36;;;;;;;3.63;1.40;;;;;6.70;99121.00;;;;10313060;28;20306;-70
2023/11/10 03:30:37;;;;;;;6.90;1.27;;;;;6.60;99118.00;;;;10320140;28;20250;-70
2023/11/10 03:35:38;;;;;;;2.83;1.03;;;;;6.50;99122.00;;;;10312220;28;20254;-69
2023/11/10 03:40:40;;;;;;;4.40;1.33;;;;;6.50;99119.00;;;;10307846;28;20748;-70
2023/11/10 03:45:41;;;;;;;6.47;1.37;;;;;6.40;99126.00;;;;10306685;28;20223;-70
2023/11/10 03:50:43;;;;;;;2.47;1.00;;;;;6.40;99120.00;;;;10313419;28;20236;-72
2023/11/10 03:55:44;;;;;;;5.47;1.57;;;;;6.40;99112.00;;;;10307227;28;20327;-72
2023/11/10 04:00:45;;;;;;;3.20;1.10;;;;;6.40;99114.00;;;;10332080;28;20251;-70
2023/11/10 04:05:50;;;;;;;5.17;1.10;;;;;6.40;99121.00;;;;10319133;28;20227;-71
2023/11/10 04:10:52;;;;;;;4.37;1.20;;;;;6.40;99121.00;;;;10312123;28;20230;-70
2023/11/10 04:15:56;;;;;;;2.67;1.20;;;;;6.30;99115.00;;;;10317881;28;20365;-69
2023/11/10 04:20:57;;;;;;;4.17;1.50;;;;;6.30;99118.00;;;;10301338;28;20228;-72
2023/11/10 04:26:06;;;;;;;5.57;1.20;;;;;6.20;99123.00;;;;10314647;28;20226;-71
2023/11/10 04:31:09;;;;;;;5.90;1.53;;;;;6.20;99108.00;;;;10321060;28;20227;-72
2023/11/10 04:36:15;;;;;;;2.70;1.30;;;;;6.20;99107.00;;;;10310858;28;20270;-70
2023/11/10 04:41:16;;;;;;;6.67;1.13;;;;;6.20;99104.00;;;;10313974;28;20322;-70
2023/11/10 04:46:17;;;;;;;3.00;1.00;;;;;6.10;99106.00;;;;10313903;28;20223;-70
2023/11/10 04:51:19;;;;;;;4.10;1.07;;;;;6.10;99121.00;;;;10320162;28;20224;-69
2023/11/10 04:56:20;;;;;;;8.40;1.87;;;;;6.10;99123.00;;;;10316320;28;20805;-69
2023/11/10 05:01:21;;;;;;;3.83;1.07;;;;;6.10;99122.00;;;;10311503;28;20282;-70
2023/11/10 05:06:32;;;;;;;6.30;1.23;;;;;6.20;99117.00;;;;10313371;28;20226;-70
2023/11/10 05:11:34;;;;;;;6.70;1.40;;;;;6.20;99119.00;;;;10305458;28;20294;-70
2023/11/10 05:16:35;;;;;;;4.07;1.33;;;;;6.30;99114.00;;;;10323355;28;20307;-69
2023/11/10 05:21:36;;;;;;;4.17;1.50;;;;;6.30;99113.00;;;;10324262;28;20298;-70
2023/11/10 05:26:37;;;;;;;6.90;1.80;;;;;6.30;99109.00;;;;10316563;28;20286;-70
2023/11/10 05:31:39;;;;;;;3.87;1.87;;;;;6.20;99118.00;;;;10308370;28;20263;-70
2023/11/10 05:36:40;;;;;;;6.50;2.07;;;;;6.30;99125.00;;;;10323954;28;20282;-71
2023/11/10 05:41:44;;;;;;;9.33;1.77;;;;;6.30;99124.00;;;;10305516;28;20356;-69
2023/11/10 05:46:45;;;;;;;8.43;1.70;;;;;6.30;99132.00;;;;10325290;28;20977;-70
2023/11/10 05:51:50;;;;;;;7.30;2.03;;;;;6.30;99127.00;;;;10303194;28;20224;-70
2023/11/10 05:56:51;;;;;;;5.73;1.50;;;;;6.40;99127.00;;;;10315579;28;20848;-71
2023/11/10 06:01:54;;;;;;;6.53;2.10;;;;;6.40;99130.00;;;;10317457;28;20235;-71
2023/11/10 06:06:56;;;;;;;7.10;2.37;;;;;6.40;99125.00;;;;10315079;28;20270;-74
2023/11/10 06:11:58;;;;;;;9.77;2.00;;;;;6.40;99125.00;;;;10315046;28;20219;-74
2023/11/10 06:16:59;;;;;;;5.60;1.83;;;;;6.50;99113.00;;;;10322570;28;20230;-73
2023/11/10 06:22:01;;;;;;;6.93;2.07;;;;;6.50;99102.00;;;;10316958;28;20262;-74
2023/11/10 06:27:02;;;;;;;4.90;1.53;;;;;6.50;99091.00;;;;10331206;28;20227;-73
2023/11/10 06:32:04;;;;;;;8.93;2.20;;;;;6.40;99097.00;;;;10315810;28;20252;-74
2023/11/10 06:37:05;;;;;;;7.00;1.90;;;;;6.50;99096.00;;;;10334239;28;20228;-74
2023/11/10 06:42:06;;;;;;;6.77;1.77;;;;;6.50;99099.00;;;;10319808;28;20220;-73
2023/11/10 06:47:08;;;;;;;6.17;1.73;;;;;6.60;99107.00;;;;10315954;28;20819;-73
2023/11/10 06:52:10;;;;;;;7.17;1.53;;;;;6.70;99104.00;;;;10328193;28;20224;-74
2023/11/10 06:57:11;;;;;;;6.00;1.37;;;;;6.80;99097.00;;;;10320833;28;20747;-74
2023/11/10 07:02:13;;;;;;;6.57;1.83;;;;;7.00;99090.00;;;;10318648;28;20239;-73
2023/11/10 07:07:14;;;;;;;11.40;3.17;;;;;7.10;99110.00;;;;10323864;28;20239;-74
2023/11/10 07:12:15;;;;;;;8.30;1.90;;;;;7.10;99105.00;;;;10326066;28;20220;-74
2023/11/10 07:17:17;;;;;;;9.00;1.70;;;;;7.20;99104.00;;;;10305883;28;20251;-71
2023/11/10 07:22:18;;;;;;;8.67;2.70;;;;;7.30;99099.00;;;;10289295;28;20254;-71
2023/11/10 07:27:19;;;;;;;8.67;2.20;;;;;7.40;99099.00;;;;10306391;28;20215;-70
2023/11/10 07:32:20;;;;;;;9.13;2.30;;;;;7.30;99108.00;;;;10307089;28;20280;-70
2023/11/10 07:37:21;;;;;;;14.40;2.43;;;;;7.20;99111.00;;;;10310599;28;20232;-71
2023/11/10 07:42:22;;;;;;;5.23;1.93;;;;;7.20;99114.00;;;;10308269;28;21018;-71
2023/11/10 07:47:24;;;;;;;6.27;1.97;;;;;7.20;99109.00;;;;10314895;28;20319;-71
2023/11/10 07:52:25;;;;;;;11.13;2.30;;;;;7.10;99111.00;;;;10315461;28;20219;-70
2023/11/10 07:57:29;;;;;;;6.07;2.00;;;;;7.10;99115.00;;;;10292800;28;20279;-71
2023/11/10 08:02:30;;;;;;;8.13;2.10;;;;;7.20;99105.00;;;;10298432;28;20231;-72
2023/11/10 08:07:31;;;;;;;8.23;2.23;;;;;7.30;99092.00;;;;10311089;28;20224;-71
2023/11/10 08:12:33;;;;;;;11.07;2.50;;;;;7.50;99105.00;;;;10309765;28;20861;-71
2023/11/10 08:17:35;;;;;;;9.57;2.20;;;;;7.50;99096.00;;;;10309452;28;20318;-72
2023/11/10 08:22:37;;;;;;;7.50;2.33;;;;;7.50;99092.00;;;;10323310;28;20257;-71
2023/11/10 08:27:38;;;;;;;9.00;1.50;;;;;7.50;99095.00;;;;10314528;28;20322;-72
2023/11/10 08:32:40;;;;;;;7.10;1.97;;;;;7.30;99081.00;;;;10307021;28;20220;-71
2023/11/10 08:37:42;;;;;;;7.03;1.30;;;;;7.20;99087.00;;;;10317324;28;20235;-71
2023/11/10 08:42:43;;;;;;;9.03;1.90;;;;;7.20;99094.00;;;;10313183;28;20909;-72
2023/11/10 08:47:44;;;;;;;5.47;1.93;;;;;7.20;99087.00;;;;10310364;28;20726;-72
2023/11/10 08:52:47;;;;;;;6.33;1.70;;;;;7.20;99091.00;;;;10331580;28;20231;-72
2023/11/10 08:57:49;;;;;;;6.20;1.90;;;;;7.50;99095.00;;;;10321280;28;20223;-72
2023/11/10 09:02:52;;;;;;;9.00;2.67;;;;;7.70;99091.00;;;;10307181;28;20555;-72
2023/11/10 09:07:53;;;;;;;7.47;1.87;;;;;7.70;99084.00;;;;10307517;28;20223;-71
2023/11/10 09:12:54;;;;;;;7.07;1.93;;;;;7.70;99073.00;;;;10311211;28;20224;-71
2023/11/10 09:17:55;;;;;;;9.67;2.70;;;;;7.60;99078.00;;;;10318736;28;20227;-72
2023/11/10 09:22:59;;;;;;;7.33;1.93;;;;;7.60;99074.00;;;;10309209;28;20235;-71
2023/11/10 09:28:01;;;;;;;8.07;2.77;;;;;7.80;99074.00;;;;10304769;28;20224;-72
2023/11/10 09:33:06;;;;;;;7.37;1.60;;;;;8.00;99070.00;;;;10313594;28;20227;-75
2023/11/10 09:38:09;;;;;;;8.20;1.83;;;;;8.10;99067.00;;;;10321341;28;20237;-75
2023/11/10 09:43:10;;;;;;;5.97;1.43;;;;;8.30;99058.00;;;;10321427;28;20224;-75
2023/11/10 09:48:13;;;;;;;7.87;1.67;;;;;8.60;99052.00;;;;10322892;28;20247;-75
2023/11/10 09:53:17;;;;;;;4.00;1.57;;;;;8.90;99049.00;;;;10313906;28;20600;-74
2023/11/10 09:58:20;;;;;;;8.27;1.60;;;;;9.00;99058.00;;;;10314201;28;20244;-74
2023/11/10 10:03:21;;;;;;;7.07;1.50;;;;;8.80;99062.00;;;;10318759;28;20224;-75
2023/11/10 10:08:23;;;;;;;4.40;1.50;;;;;9.00;99065.00;;;;10334316;28;20219;-74
2023/11/10 10:13:28;;;;;;;1.93;1.20;;;;;9.20;99062.00;;;;10303453;28;20231;-73
2023/11/10 10:18:29;;;;;;;3.43;0.90;;;;;8.90;99064.00;;;;10321777;28;20223;-74
2023/11/10 10:23:31;;;;;;;3.40;1.10;;;;;8.70;99066.00;;;;10315933;28;20223;-74
2023/11/10 10:28:34;;;;;;;4.07;1.20;;;;;8.60;99062.00;;;;10308122;28;20259;-73
2023/11/10 10:33:35;;;;;;;2.80;0.93;;;;;8.60;99070.00;;;;10317983;28;20298;-74
2023/11/10 10:38:42;;;;;;;4.50;1.77;;;;;8.90;99052.00;;;;10314346;28;20259;-74
2023/11/10 10:43:43;;;;;;;2.00;0.80;;;;;8.90;99047.00;;;;10336238;28;20227;-76
2023/11/10 10:49:12;;;;;;;5.07;1.20;;;;;9.00;99062.00;;;;10329810;28;20215;-78
2023/11/10 10:54:29;;;;;;;2.87;1.03;;;;;9.10;99048.00;;;;10323710;28;20237;-76
2023/11/10 10:59:31;;;;;;;4.77;0.93;;;;;9.30;99052.00;;;;10322885;28;20239;-79
2023/11/10 11:04:51;;;;;;;3.30;1.13;;;;;9.40;99040.00;;;;10325210;28;20294;-81
2023/11/10 11:10:27;;;;;;;2.60;1.10;;;;;9.40;99050.00;;;;10313070;28;20365;-80
2023/11/10 11:15:43;;;;;;;4.13;1.23;;;;;9.40;99051.00;;;;10315863;28;20227;-80
2023/11/10 11:20:46;;;;;;;4.43;1.30;;;;;9.30;99040.00;;;;10320778;28;20940;-79
2023/11/10 11:25:58;;;;;;;4.90;1.17;;;;;9.20;99057.00;;;;10328572;28;20235;-76
2023/11/10 11:31:11;;;;;;;5.93;1.40;;;;;9.10;99062.00;;;;10325870;28;20219;-80
2023/11/10 11:36:15;;;;;;;2.23;1.07;;;;;9.00;99056.00;;;;10323550;28;20227;-77
2023/11/10 11:41:18;;;;;;;2.77;0.97;;;;;8.70;99049.00;;;;10331082;28;20223;-78
2023/11/10 11:46:19;;;;;;;2.57;0.97;;;;;8.60;99047.00;;;;10333679;28;20251;-79
2023/11/10 11:51:21;;;;;;;5.10;1.33;;;;;8.60;99038.00;;;;10326004;28;20301;-76
2023/11/10 11:56:22;;;;;;;5.67;2.03;;;;;8.60;99036.00;;;;10314954;28;20303;-76
2023/11/10 12:01:23;;;;;;;6.10;1.53;;;;;8.70;99033.00;;;;10323843;28;20322;-76
2023/11/10 12:06:27;;;;;;;9.03;1.73;;;;;8.70;99022.00;;;;10325778;28;20215;-77
2023/11/10 12:11:28;;;;;;;8.90;2.33;;;;;8.80;99026.00;;;;10330491;28;20929;-76
2023/11/10 12:16:30;;;;;;;10.27;2.37;;;;;9.50;99022.00;;;;10339334;28;20250;-76
2023/11/10 12:21:41;;;;;;;6.70;2.00;;;;;9.90;99034.00;;;;10324469;28;20311;-75
2023/11/10 12:26:43;;;;;;;10.03;1.80;;;;;10.10;99021.00;;;;10326797;28;20322;-78
2023/11/10 12:31:44;;;;;;;9.87;2.17;;;;;10.10;99027.00;;;;10322633;28;20232;-77
2023/11/10 12:36:46;;;;;;;10.57;1.67;;;;;10.20;99025.00;;;;10308604;28;20259;-80
2023/11/10 12:41:50;;;;;;;5.93;1.33;;;;;10.20;99022.00;;;;10312564;28;20373;-78
2023/11/10 12:46:56;;;;;;;6.10;1.57;;;;;10.20;99014.00;;;;10297423;28;20220;-77
2023/11/10 12:52:03;;;;;;;5.13;1.73;;;;;10.00;99013.00;;;;10317602;28;20278;-78
2023/11/10 12:57:04;;;;;;;5.50;1.93;;;;;9.80;99015.00;;;;10324924;28;20224;-80
2023/11/10 13:02:07;;;;;;;6.53;2.00;;;;;9.90;99017.00;;;;10311736;28;20215;-78
2023/11/10 13:07:08;;;;;;;5.03;1.57;;;;;9.90;99019.00;;;;10322547;28;20215;-73
2023/11/10 13:12:11;;;;;;;4.83;2.10;;;;;9.90;99032.00;;;;10303415;28;20220;-72
2023/11/10 13:17:12;;;;;;;5.53;1.33;;;;;9.80;99031.00;;;;10318240;28;20332;-72
2023/11/10 13:22:18;;;;;;;4.20;1.00;;;;;9.70;99016.00;;;;10321541;28;20258;-72
2023/11/10 13:27:21;;;;;;;1.00;0.90;;;;;9.70;99027.00;;;;10310702;28;20216;-73
2023/11/10 13:32:22;;;;;;;1.90;0.90;;;;;9.60;99016.00;;;;10308332;28;20223;-72
2023/11/10 13:37:24;;;;;;;5.30;1.13;;;;;9.50;99019.00;;;;10314100;28;20223;-72
2023/11/10 13:42:25;;;;;;;3.23;1.20;;;;;9.50;99025.00;;;;10307958;28;20223;-73
2023/11/10 13:47:27;;;;;;;3.80;1.07;;;;;9.40;99015.00;;;;10313457;28;20216;-73
2023/11/10 13:52:28;;;;;;;1.70;0.90;;;;;9.30;99020.00;;;;10304090;28;20308;-72
2023/11/10 13:57:30;;;;;;;2.70;0.90;;;;;9.20;99025.00;;;;10322609;28;20232;-72
2023/11/10 14:02:35;;;;;;;4.67;1.00;;;;;9.10;99025.00;;;;10311506;28;20894;-72
2023/11/10 14:07:36;;;;;;;1.37;0.93;;;;;9.00;99025.00;;;;10313037;28;20220;-72
2023/11/10 14:12:41;;;;;;;1.87;0.90;;;;;9.00;99022.00;;;;10313845;28;20259;-72
2023/11/10 14:17:42;;;;;;;1.93;0.93;;;;;9.00;99019.00;;;;10318842;28;20224;-79
2023/11/10 14:22:43;;;;;;;6.23;1.93;;;;;9.20;99024.00;;;;10319112;28;20227;-78
2023/11/10 14:27:44;;;;;;;5.57;1.57;;;;;9.20;99021.00;;;;10318592;28;20311;-78
2023/11/10 14:32:46;;;;;;;6.40;1.63;;;;;9.20;99021.00;;;;10321103;28;20208;-79
2023/11/10 14:37:47;;;;;;;9.00;2.00;;;;;9.20;99025.00;;;;10320843;28;20223;-79
2023/11/10 14:42:49;;;;;;;6.97;1.63;;;;;9.30;99017.00;;;;10318812;28;20855;-80
2023/11/10 14:47:51;;;;;;;9.63;2.37;;;;;9.30;99008.00;;;;10317263;28;20228;-77
2023/11/10 14:52:53;;;;;;;5.07;1.90;;;;;9.30;99014.00;;;;10319886;28;20255;-80
2023/11/10 14:57:55;;;;;;;7.70;2.47;;;;;9.10;99009.00;;;;10315269;28;20235;-79
2023/11/10 15:02:56;;;;;;;7.40;1.77;;;;;9.00;99015.00;;;;10315757;28;20298;-79
2023/11/10 15:07:59;;;;;;;12.40;2.33;;;;;9.00;99010.00;;;;10323225;28;20232;-78
2023/11/10 15:13:01;;;;;;;8.03;2.13;;;;;9.00;99013.00;;;;10318716;28;20577;-77
2023/11/10 15:18:03;;;;;;;12.13;2.10;;;;;8.90;99011.00;;;;10333914;28;20235;-79
2023/11/10 15:23:05;;;;;;;9.20;2.43;;;;;8.90;99005.00;;;;10285700;28;20672;-70
2023/11/10 15:28:07;;;;;;;13.10;2.77;;;;;8.90;99002.00;;;;10326714;28;20777;-72
2023/11/10 15:33:09;;;;;;;12.77;3.27;;;;;8.90;98990.00;;;;10312034;28;20228;-72
2023/11/10 15:38:11;;;;;;;13.73;3.10;;;;;8.90;98996.00;;;;10305821;28;20240;-72
2023/11/10 15:43:12;;;;;;;9.80;2.57;;;;;8.90;99002.00;;;;10299854;28;20315;-72
2023/11/10 15:48:14;;;;;;;9.30;2.30;;;;;8.80;98997.00;;;;10310047;28;20223;-72
2023/11/10 15:53:15;;;;;;;9.77;2.77;;;;;8.70;98999.00;;;;10313290;28;20670;-72
2023/11/10 15:58:16;;;;;;;10.77;2.43;;;;;8.60;98998.00;;;;10308404;28;20254;-72
2023/11/10 16:03:17;;;;;;;11.20;2.70;;;;;8.50;99000.00;;;;10315467;28;20286;-72
2023/11/10 16:08:19;;;;;;;10.40;2.80;;;;;8.40;99003.00;;;;10307205;28;21665;-72
2023/11/10 16:13:21;;;;;;;10.53;3.37;;;;;8.40;99000.00;;;;10309052;28;20682;-71
2023/11/10 16:18:22;;;;;;;18.60;3.67;;;;;8.40;98988.00;;;;10306258;28;20224;-72
2023/11/10 16:23:23;;;;;;;11.70;3.07;;;;;8.30;98989.00;;;;10309743;28;20224;-71
2023/11/10 16:28:24;;;;;;;15.30;3.73;;;;;8.30;98994.00;;;;10315121;28;20223;-71
2023/11/10 16:33:26;;;;;;;19.60;4.47;;;;;8.30;98983.00;;;;10308464;28;20868;-71
2023/11/10 16:38:28;;;;;;;16.23;3.70;;;;;8.30;98989.00;;;;10318909;28;20486;-71
2023/11/10 16:43:29;;;;;;;17.17;3.90;;;;;8.30;98995.00;;;;10311132;28;20220;-74
2023/11/10 16:48:30;;;;;;;10.47;3.60;;;;;8.30;98996.00;;;;10322853;28;20269;-74
2023/11/10 16:53:31;;;;;;;10.37;4.43;;;;;8.30;98991.00;;;;10306933;28;20228;-73
2023/11/10 16:58:33;;;;;;;8.63;3.50;;;;;8.30;98995.00;;;;10308780;28;20223;-74
2023/11/10 17:03:36;;;;;;;12.77;3.13;;;;;8.20;98995.00;;;;10311135;28;20223;-74
2023/11/10 17:08:39;;;;;;;12.57;3.17;;;;;8.20;98995.00;;;;10312524;28;20223;-73
2023/11/10 17:13:41;;;;;;;13.10;3.57;;;;;8.20;98991.00;;;;10306903;28;20268;-74
2023/11/10 17:18:46;;;;;;;17.13;5.97;;;;;8.20;98994.00;;;;10312943;28;20297;-74
2023/11/10 17:23:47;;;;;;;48.27;21.73;;;;;8.20;98994.00;;;;10304592;28;20226;-75
2023/11/10 17:28:49;;;;;;;17.03;8.80;;;;;8.20;98989.00;;;;10317440;28;20267;-75
2023/11/10 17:33:51;;;;;;;20.67;7.87;;;;;8.20;98989.00;;;;10328003;28;20645;-74
2023/11/10 17:38:52;;;;;;;20.03;6.83;;;;;8.20;98994.00;;;;10307976;28;20789;-75
2023/11/10 17:43:55;;;;;;;10.70;4.77;;;;;8.20;98999.00;;;;10297451;28;20231;-75
2023/11/10 17:48:56;;;;;;;9.73;4.17;;;;;8.20;99006.00;;;;10307814;28;20872;-74
2023/11/10 17:53:57;;;;;;;20.17;6.77;;;;;8.10;99007.00;;;;10307912;28;20219;-70
2023/11/10 17:58:58;;;;;;;13.43;5.57;;;;;8.10;99024.00;;;;10305498;28;20298;-71
2023/11/10 18:04:00;;;;;;;10.17;5.37;;;;;8.10;99027.00;;;;10312747;28;20223;-70
2023/11/10 18:09:01;;;;;;;9.87;5.23;;;;;8.10;99028.00;;;;10306430;28;20348;-71
2023/11/10 18:14:02;;;;;;;12.53;5.63;;;;;8.10;99029.00;;;;10322006;28;20212;-71
2023/11/10 18:19:04;;;;;;;13.60;5.80;;;;;8.10;99038.00;;;;10315208;28;20314;-70
2023/11/10 18:24:05;;;;;;;9.73;5.30;;;;;8.20;99048.00;;;;10330853;28;20674;-71
2023/11/10 18:29:09;;;;;;;6.93;4.37;;;;;8.10;99060.00;;;;10322803;28;20326;-70
2023/11/10 18:34:11;;;;;;;7.07;3.43;;;;;8.00;99068.00;;;;10307163;28;20286;-70
2023/11/10 18:39:12;;;;;;;5.83;3.00;;;;;7.80;99071.00;;;;10307656;28;20235;-70
2023/11/10 18:44:14;;;;;;;11.23;3.80;;;;;7.60;99093.00;;;;10306449;28;20251;-70
2023/11/10 18:49:15;;;;;;;6.70;3.33;;;;;7.60;99094.00;;;;10313800;28;20220;-70
2023/11/10 18:54:16;;;;;;;7.60;3.20;;;;;7.50;99105.00;;;;10314619;28;20259;-70
2023/11/10 18:59:18;;;;;;;5.60;2.90;;;;;7.40;99118.00;;;;10317282;28;20238;-71
2023/11/10 19:04:19;;;;;;;8.70;2.90;;;;;7.30;99117.00;;;;10317495;28;20279;-70
2023/11/10 19:09:20;;;;;;;4.87;2.30;;;;;7.20;99123.00;;;;10312244;28;20278;-70
2023/11/10 19:14:21;;;;;;;4.97;2.30;;;;;7.10;99112.00;;;;10315640;28;20275;-69
2023/11/10 19:19:22;;;;;;;4.03;1.90;;;;;7.10;99122.00;;;;10307083;28;20282;-70
2023/11/10 19:24:23;;;;;;;5.57;1.90;;;;;7.10;99134.00;;;;10314421;28;20220;-71
2023/11/10 19:29:26;;;;;;;6.27;2.27;;;;;7.00;99149.00;;;;10312758;28;20312;-71
2023/11/10 19:34:27;;;;;;;3.37;1.97;;;;;6.90;99179.00;;;;10323821;28;20682;-69
2023/11/10 19:39:29;;;;;;;6.87;2.60;;;;;6.90;99192.00;;;;10312904;28;20258;-69
2023/11/10 19:44:30;;;;;;;6.93;3.50;;;;;6.90;99201.00;;;;10292371;28;20690;-70
2023/11/10 19:49:32;;;;;;;5.07;3.43;;;;;6.80;99209.00;;;;10315452;28;20211;-72
2023/11/10 19:54:53;;;;;;;5.23;3.00;;;;;6.80;99215.00;;;;10314072;28;20211;-71
2023/11/10 19:59:57;;;;;;;7.17;4.00;;;;;6.80;99217.00;;;;10286327;28;20230;-70
2023/11/10 20:05:01;;;;;;;5.10;3.60;;;;;6.80;99187.00;;;;10321434;28;20271;-70
2023/11/10 20:10:02;;;;;;;4.37;3.03;;;;;6.80;99166.00;;;;10296475;28;20882;-69
2023/11/10 20:15:04;;;;;;;4.37;2.57;;;;;6.80;99185.00;;;;10310184;28;20274;-72
2023/11/10 20:20:05;;;;;;;6.70;3.13;;;;;6.80;99213.00;;;;10313280;28;20730;-72
2023/11/10 20:25:07;;;;;;;9.63;4.63;;;;;6.90;99226.00;;;;10323879;28;20251;-72
2023/11/10 20:30:10;;;;;;;21.47;12.93;;;;;6.90;99257.00;;;;10311539;28;20220;-72
2023/11/10 20:35:11;;;;;;;41.20;21.53;;;;;6.90;99268.00;;;;10304295;28;20867;-72
2023/11/10 20:40:14;;;;;;;17.90;11.90;;;;;6.90;99293.00;;;;10306946;28;20243;-72
2023/11/10 20:45:16;;;;;;;21.03;10.67;;;;;6.90;99312.00;;;;10314552;28;20869;-72
2023/11/10 20:50:17;;;;;;;14.97;9.83;;;;;6.90;99320.00;;;;10307339;28;20223;-72
2023/11/10 20:55:20;;;;;;;17.30;9.77;;;;;6.90;99330.00;;;;10324352;28;20677;-72
2023/11/10 21:00:22;;;;;;;26.20;12.00;;;;;6.80;99340.00;;;;10308562;28;20239;-72
2023/11/10 21:05:24;;;;;;;18.60;10.67;;;;;6.90;99356.00;;;;10319050;28;20293;-72
2023/11/10 21:10:25;;;;;;;23.43;11.80;;;;;6.90;99342.00;;;;10289641;28;20686;-72
2023/11/10 21:15:30;;;;;;;24.87;13.77;;;;;7.00;99366.00;;;;10307776;28;20620;-71
2023/11/10 21:20:31;;;;;;;34.47;15.63;;;;;7.00;99361.00;;;;10309939;28;20224;-71
2023/11/10 21:25:32;;;;;;;26.83;14.07;;;;;7.00;99373.00;;;;10311475;28;20240;-72
2023/11/10 21:30:35;;;;;;;23.50;14.10;;;;;7.00;99388.00;;;;10310408;28;20223;-72
2023/11/10 21:35:39;;;;;;;30.57;14.67;;;;;7.00;99394.00;;;;10332672;28;20605;-72
2023/11/10 21:40:42;;;;;;;20.23;12.87;;;;;7.00;99413.00;;;;10315802;28;20315;-72
2023/11/10 21:45:44;;;;;;;19.77;13.00;;;;;7.10;99417.00;;;;10295600;28;20315;-72
2023/11/10 21:50:48;;;;;;;20.70;12.67;;;;;7.10;99423.00;;;;10290826;28;20227;-72
2023/11/10 21:55:49;;;;;;;17.30;11.70;;;;;7.00;99432.00;;;;10324615;28;20227;-72
2023/11/10 22:00:50;;;;;;;17.43;11.77;;;;;7.00;99433.00;;;;10302749;28;20618;-72
2023/11/10 22:05:52;;;;;;;14.27;10.67;;;;;6.90;99454.00;;;;10322987;28;20228;-72
2023/11/10 22:10:53;;;;;;;18.67;10.77;;;;;6.90;99460.00;;;;10297239;28;20667;-72
2023/11/10 22:15:55;;;;;;;17.60;10.10;;;;;7.10;99466.00;;;;10309996;28;20256;-72
2023/11/10 22:20:56;;;;;;;20.03;9.97;;;;;7.10;99471.00;;;;10314969;28;20299;-72
2023/11/10 22:25:58;;;;;;;22.30;9.70;;;;;7.00;99470.00;;;;10314433;28;20228;-72
2023/11/10 22:30:59;;;;;;;18.70;9.13;;;;;6.90;99486.00;;;;10307987;28;20883;-72
2023/11/10 22:36:00;;;;;;;15.93;7.70;;;;;6.90;99495.00;;;;10321306;28;20219;-70
2023/11/10 22:41:02;;;;;;;19.90;7.93;;;;;6.90;99501.00;;;;10319468;28;20235;-69
2023/11/10 22:46:05;;;;;;;23.73;9.43;;;;;7.00;99513.00;;;;10321253;28;20215;-70
2023/11/10 22:51:06;;;;;;;25.13;8.97;;;;;6.90;99529.00;;;;10325832;28;20232;-69
2023/11/10 22:56:08;;;;;;;13.33;6.17;;;;;6.90;99522.00;;;;10327820;28;20322;-70
2023/11/10 23:01:09;;;;;;;14.53;7.43;;;;;6.90;99540.00;;;;10314689;28;20329;-70
2023/11/10 23:06:11;;;;;;;14.97;6.20;;;;;6.90;99547.00;;;;10293012;28;20228;-70
2023/11/10 23:11:14;;;;;;;12.30;5.27;;;;;6.90;99554.00;;;;10296942;28;20306;-71
2023/11/10 23:16:15;;;;;;;16.93;5.70;;;;;6.90;99560.00;;;;10316649;28;20315;-70
2023/11/10 23:21:16;;;;;;;9.63;3.97;;;;;6.80;99580.00;;;;10319922;28;20572;-70
2023/11/10 23:26:17;;;;;;;12.17;3.87;;;;;6.80;99577.00;;;;10311717;28;20227;-71
2023/11/10 23:31:19;;;;;;;8.90;4.00;;;;;6.80;99580.00;;;;10324541;28;20226;-70
2023/11/10 23:36:20;;;;;;;8.97;3.40;;;;;6.70;99590.00;;;;10332689;28;20990;-69
2023/11/10 23:41:22;;;;;;;10.80;3.10;;;;;6.60;99592.00;;;;10326015;28;20228;-70
2023/11/10 23:46:23;;;;;;;7.27;2.83;;;;;6.50;99606.00;;;;10310335;28;20224;-71
2023/11/10 23:51:24;;;;;;;12.17;3.47;;;;;6.50;99610.00;;;;10307602;28;20220;-71
2023/11/10 23:56:26;;;;;;;19.00;3.87;;;;;6.60;99613.00;;;;10311318;28;20216;-71
